sensor_id;sensor_type;location;lat;lon;timestamp;P1;durP1;ratioP1;P2;durP2;ratioP2
21036;SDS011;10677;50.942;4.028;2023-02-02T00:01:51;18.85;;;3.85;;
21036;SDS011;10677;50.942;4.028;2023-02-02T00:04:21;22.80;;;4.28;;
21036;SDS011;10677;50.942;4.028;2023-02-02T00:06:48;20.45;;;3.83;;
21036;SDS011;10677;50.942;4.028;2023-02-02T00:09:15;17.15;;;3.30;;
21036;SDS011;10677;50.942;4.028;2023-02-02T00:11:42;21.48;;;3.85;;
21036;SDS011;10677;50.942;4.028;2023-02-02T00:14:09;21.48;;;4.15;;
21036;SDS011;10677;50.942;4.028;2023-02-02T00:19:06;18.58;;;3.75;;
21036;SDS011;10677;50.942;4.028;2023-02-02T00:21:37;18.35;;;3.55;;
21036;SDS011;10677;50.942;4.028;2023-02-02T00:24:04;22.30;;;3.97;;
21036;SDS011;10677;50.942;4.028;2023-02-02T00:26:31;16.80;;;3.17;;
21036;SDS011;10677;50.942;4.028;2023-02-02T00:28:57;17.67;;;3.17;;
21036;SDS011;10677;50.942;4.028;2023-02-02T00:31:23;20.58;;;3.25;;
21036;SDS011;10677;50.942;4.028;2023-02-02T00:33:49;23.75;;;3.40;;
21036;SDS011;10677;50.942;4.028;2023-02-02T00:36:15;19.67;;;3.90;;
21036;SDS011;10677;50.942;4.028;2023-02-02T00:38:41;18.30;;;4.13;;
21036;SDS011;10677;50.942;4.028;2023-02-02T00:41:07;16.95;;;3.22;;
21036;SDS011;10677;50.942;4.028;2023-02-02T00:43:33;14.52;;;3.33;;
21036;SDS011;10677;50.942;4.028;2023-02-02T00:45:58;20.95;;;3.63;;
21036;SDS011;10677;50.942;4.028;2023-02-02T00:48:24;18.63;;;3.75;;
21036;SDS011;10677;50.942;4.028;2023-02-02T00:50:50;16.45;;;3.13;;
21036;SDS011;10677;50.942;4.028;2023-02-02T00:53:16;21.15;;;3.83;;
21036;SDS011;10677;50.942;4.028;2023-02-02T00:55:42;18.38;;;3.30;;
21036;SDS011;10677;50.942;4.028;2023-02-02T00:58:08;20.45;;;3.45;;
21036;SDS011;10677;50.942;4.028;2023-02-02T01:00:34;19.95;;;3.65;;
21036;SDS011;10677;50.942;4.028;2023-02-02T01:02:59;25.13;;;3.38;;
21036;SDS011;10677;50.942;4.028;2023-02-02T01:05:29;16.98;;;2.90;;
21036;SDS011;10677;50.942;4.028;2023-02-02T01:07:55;39.05;;;4.80;;
21036;SDS011;10677;50.942;4.028;2023-02-02T01:10:21;17.63;;;3.72;;
21036;SDS011;10677;50.942;4.028;2023-02-02T01:12:47;20.35;;;4.00;;
21036;SDS011;10677;50.942;4.028;2023-02-02T01:15:12;21.00;;;3.13;;
21036;SDS011;10677;50.942;4.028;2023-02-02T01:17:38;20.90;;;3.63;;
21036;SDS011;10677;50.942;4.028;2023-02-02T01:20:05;18.40;;;3.35;;
21036;SDS011;10677;50.942;4.028;2023-02-02T01:22:31;16.35;;;3.28;;
21036;SDS011;10677;50.942;4.028;2023-02-02T01:25:02;22.60;;;3.80;;
21036;SDS011;10677;50.942;4.028;2023-02-02T01:27:28;18.88;;;3.53;;
21036;SDS011;10677;50.942;4.028;2023-02-02T01:29:54;19.65;;;3.80;;
21036;SDS011;10677;50.942;4.028;2023-02-02T01:32:20;20.35;;;3.63;;
21036;SDS011;10677;50.942;4.028;2023-02-02T01:34:45;15.65;;;3.72;;
21036;SDS011;10677;50.942;4.028;2023-02-02T01:37:11;15.80;;;3.45;;
21036;SDS011;10677;50.942;4.028;2023-02-02T01:39:37;20.55;;;3.95;;
21036;SDS011;10677;50.942;4.028;2023-02-02T01:42:02;17.15;;;2.95;;
21036;SDS011;10677;50.942;4.028;2023-02-02T01:47:36;15.38;;;3.00;;
21036;SDS011;10677;50.942;4.028;2023-02-02T01:50:12;25.48;;;3.65;;
21036;SDS011;10677;50.942;4.028;2023-02-02T01:52:40;20.08;;;3.03;;
21036;SDS011;10677;50.942;4.028;2023-02-02T01:55:10;23.70;;;3.20;;
21036;SDS011;10677;50.942;4.028;2023-02-02T01:57:42;18.00;;;3.65;;
21036;SDS011;10677;50.942;4.028;2023-02-02T02:00:12;21.08;;;3.38;;
21036;SDS011;10677;50.942;4.028;2023-02-02T02:02:40;21.45;;;4.15;;
21036;SDS011;10677;50.942;4.028;2023-02-02T02:05:09;19.42;;;4.10;;
21036;SDS011;10677;50.942;4.028;2023-02-02T02:07:37;20.67;;;4.57;;
21036;SDS011;10677;50.942;4.028;2023-02-02T02:10:06;18.40;;;3.25;;
21036;SDS011;10677;50.942;4.028;2023-02-02T02:12:32;15.23;;;3.30;;
21036;SDS011;10677;50.942;4.028;2023-02-02T02:14:58;14.88;;;3.55;;
21036;SDS011;10677;50.942;4.028;2023-02-02T02:26:59;18.27;;;3.97;;
21036;SDS011;10677;50.942;4.028;2023-02-02T02:37:48;17.35;;;3.38;;
21036;SDS011;10677;50.942;4.028;2023-02-02T02:40:36;18.98;;;3.30;;
21036;SDS011;10677;50.942;4.028;2023-02-02T02:43:21;15.68;;;3.15;;
21036;SDS011;10677;50.942;4.028;2023-02-02T02:45:52;19.20;;;3.28;;
21036;SDS011;10677;50.942;4.028;2023-02-02T02:48:18;16.83;;;3.45;;
21036;SDS011;10677;50.942;4.028;2023-02-02T02:50:44;18.77;;;3.63;;
21036;SDS011;10677;50.942;4.028;2023-02-02T02:53:11;24.08;;;3.55;;
21036;SDS011;10677;50.942;4.028;2023-02-02T02:55:49;17.65;;;3.85;;
21036;SDS011;10677;50.942;4.028;2023-02-02T03:01:00;22.65;;;3.83;;
21036;SDS011;10677;50.942;4.028;2023-02-02T03:06:21;19.83;;;3.00;;
21036;SDS011;10677;50.942;4.028;2023-02-02T03:09:05;15.40;;;3.90;;
21036;SDS011;10677;50.942;4.028;2023-02-02T03:11:37;16.05;;;2.90;;
21036;SDS011;10677;50.942;4.028;2023-02-02T03:14:03;15.23;;;3.55;;
21036;SDS011;10677;50.942;4.028;2023-02-02T03:16:33;15.35;;;3.55;;
21036;SDS011;10677;50.942;4.028;2023-02-02T03:19:00;18.65;;;3.33;;
21036;SDS011;10677;50.942;4.028;2023-02-02T03:21:26;15.35;;;3.22;;
21036;SDS011;10677;50.942;4.028;2023-02-02T03:23:51;22.77;;;3.15;;
21036;SDS011;10677;50.942;4.028;2023-02-02T03:26:17;18.63;;;3.80;;
21036;SDS011;10677;50.942;4.028;2023-02-02T03:28:43;19.85;;;3.28;;
21036;SDS011;10677;50.942;4.028;2023-02-02T03:31:08;23.75;;;3.97;;
21036;SDS011;10677;50.942;4.028;2023-02-02T03:33:34;17.65;;;2.90;;
21036;SDS011;10677;50.942;4.028;2023-02-02T03:36:01;14.93;;;3.40;;
21036;SDS011;10677;50.942;4.028;2023-02-02T03:38:26;18.85;;;2.78;;
21036;SDS011;10677;50.942;4.028;2023-02-02T03:40:52;21.42;;;4.03;;
21036;SDS011;10677;50.942;4.028;2023-02-02T03:43:21;13.82;;;3.35;;
21036;SDS011;10677;50.942;4.028;2023-02-02T03:45:54;16.38;;;3.22;;
21036;SDS011;10677;50.942;4.028;2023-02-02T03:48:24;18.75;;;3.08;;
21036;SDS011;10677;50.942;4.028;2023-02-02T03:50:50;20.20;;;3.13;;
21036;SDS011;10677;50.942;4.028;2023-02-02T03:53:16;19.05;;;3.17;;
21036;SDS011;10677;50.942;4.028;2023-02-02T03:55:41;21.02;;;3.63;;
21036;SDS011;10677;50.942;4.028;2023-02-02T03:58:07;17.90;;;3.30;;
21036;SDS011;10677;50.942;4.028;2023-02-02T04:00:32;13.85;;;3.15;;
21036;SDS011;10677;50.942;4.028;2023-02-02T04:02:58;15.27;;;2.70;;
21036;SDS011;10677;50.942;4.028;2023-02-02T04:05:24;12.35;;;2.65;;
21036;SDS011;10677;50.942;4.028;2023-02-02T04:07:49;17.52;;;3.10;;
21036;SDS011;10677;50.942;4.028;2023-02-02T04:10:15;14.98;;;2.90;;
21036;SDS011;10677;50.942;4.028;2023-02-02T04:12:42;16.92;;;2.97;;
21036;SDS011;10677;50.942;4.028;2023-02-02T04:15:08;15.35;;;2.65;;
21036;SDS011;10677;50.942;4.028;2023-02-02T04:17:34;14.48;;;3.17;;
21036;SDS011;10677;50.942;4.028;2023-02-02T04:20:00;20.65;;;3.10;;
21036;SDS011;10677;50.942;4.028;2023-02-02T04:22:26;12.18;;;2.97;;
21036;SDS011;10677;50.942;4.028;2023-02-02T04:24:52;15.00;;;2.65;;
21036;SDS011;10677;50.942;4.028;2023-02-02T04:27:17;23.20;;;3.30;;
21036;SDS011;10677;50.942;4.028;2023-02-02T04:29:43;16.50;;;2.60;;
21036;SDS011;10677;50.942;4.028;2023-02-02T04:32:09;19.92;;;2.80;;
21036;SDS011;10677;50.942;4.028;2023-02-02T04:34:34;17.33;;;2.70;;
21036;SDS011;10677;50.942;4.028;2023-02-02T04:37:00;12.55;;;2.88;;
21036;SDS011;10677;50.942;4.028;2023-02-02T04:39:26;16.08;;;2.55;;
21036;SDS011;10677;50.942;4.028;2023-02-02T04:41:51;19.40;;;2.72;;
21036;SDS011;10677;50.942;4.028;2023-02-02T04:44:17;17.63;;;3.05;;
21036;SDS011;10677;50.942;4.028;2023-02-02T04:46:43;17.67;;;2.72;;
21036;SDS011;10677;50.942;4.028;2023-02-02T04:49:09;19.98;;;2.90;;
21036;SDS011;10677;50.942;4.028;2023-02-02T04:51:36;15.98;;;2.83;;
21036;SDS011;10677;50.942;4.028;2023-02-02T04:54:02;16.48;;;2.75;;
21036;SDS011;10677;50.942;4.028;2023-02-02T04:56:29;14.93;;;2.63;;
21036;SDS011;10677;50.942;4.028;2023-02-02T04:58:54;16.60;;;2.58;;
21036;SDS011;10677;50.942;4.028;2023-02-02T05:01:20;13.55;;;2.53;;
21036;SDS011;10677;50.942;4.028;2023-02-02T05:03:46;12.25;;;2.95;;
21036;SDS011;10677;50.942;4.028;2023-02-02T05:06:12;12.10;;;3.00;;
21036;SDS011;10677;50.942;4.028;2023-02-02T05:08:39;13.00;;;2.25;;
21036;SDS011;10677;50.942;4.028;2023-02-02T05:11:11;19.42;;;2.97;;
21036;SDS011;10677;50.942;4.028;2023-02-02T05:13:44;14.52;;;2.80;;
21036;SDS011;10677;50.942;4.028;2023-02-02T05:16:11;16.40;;;3.45;;
21036;SDS011;10677;50.942;4.028;2023-02-02T05:18:37;8.48;;;2.22;;
21036;SDS011;10677;50.942;4.028;2023-02-02T05:21:02;11.45;;;2.42;;
21036;SDS011;10677;50.942;4.028;2023-02-02T05:23:28;21.30;;;2.67;;
21036;SDS011;10677;50.942;4.028;2023-02-02T05:25:54;15.43;;;2.80;;
21036;SDS011;10677;50.942;4.028;2023-02-02T05:28:21;16.73;;;2.72;;
21036;SDS011;10677;50.942;4.028;2023-02-02T05:30:47;20.27;;;2.83;;
21036;SDS011;10677;50.942;4.028;2023-02-02T05:33:13;16.10;;;2.88;;
21036;SDS011;10677;50.942;4.028;2023-02-02T05:35:39;18.40;;;2.97;;
21036;SDS011;10677;50.942;4.028;2023-02-02T05:38:04;11.20;;;2.47;;
21036;SDS011;10677;50.942;4.028;2023-02-02T05:40:30;19.35;;;3.15;;
21036;SDS011;10677;50.942;4.028;2023-02-02T05:42:56;12.77;;;2.47;;
21036;SDS011;10677;50.942;4.028;2023-02-02T05:45:22;14.07;;;2.83;;
21036;SDS011;10677;50.942;4.028;2023-02-02T05:47:48;12.98;;;2.88;;
21036;SDS011;10677;50.942;4.028;2023-02-02T05:50:14;16.90;;;3.15;;
21036;SDS011;10677;50.942;4.028;2023-02-02T05:52:40;14.10;;;2.88;;
21036;SDS011;10677;50.942;4.028;2023-02-02T05:55:08;17.30;;;3.83;;
21036;SDS011;10677;50.942;4.028;2023-02-02T05:57:34;16.70;;;3.67;;
21036;SDS011;10677;50.942;4.028;2023-02-02T06:00:00;11.50;;;3.13;;
21036;SDS011;10677;50.942;4.028;2023-02-02T06:02:27;21.42;;;4.68;;
21036;SDS011;10677;50.942;4.028;2023-02-02T06:04:53;14.05;;;3.35;;
21036;SDS011;10677;50.942;4.028;2023-02-02T06:07:18;16.73;;;3.08;;
21036;SDS011;10677;50.942;4.028;2023-02-02T06:09:44;16.63;;;3.08;;
21036;SDS011;10677;50.942;4.028;2023-02-02T06:12:11;19.67;;;2.72;;
21036;SDS011;10677;50.942;4.028;2023-02-02T06:14:37;17.00;;;3.05;;
21036;SDS011;10677;50.942;4.028;2023-02-02T06:17:02;15.75;;;2.75;;
21036;SDS011;10677;50.942;4.028;2023-02-02T06:19:30;16.23;;;3.38;;
21036;SDS011;10677;50.942;4.028;2023-02-02T06:21:57;14.57;;;3.00;;
21036;SDS011;10677;50.942;4.028;2023-02-02T06:24:22;13.25;;;3.20;;
21036;SDS011;10677;50.942;4.028;2023-02-02T06:26:49;11.98;;;2.72;;
21036;SDS011;10677;50.942;4.028;2023-02-02T06:29:15;14.63;;;2.67;;
21036;SDS011;10677;50.942;4.028;2023-02-02T06:31:41;19.23;;;2.70;;
21036;SDS011;10677;50.942;4.028;2023-02-02T06:34:08;16.90;;;3.05;;
21036;SDS011;10677;50.942;4.028;2023-02-02T06:36:39;12.05;;;3.15;;
21036;SDS011;10677;50.942;4.028;2023-02-02T06:39:05;12.40;;;3.13;;
21036;SDS011;10677;50.942;4.028;2023-02-02T06:41:32;17.27;;;2.72;;
21036;SDS011;10677;50.942;4.028;2023-02-02T06:43:58;15.27;;;3.03;;
21036;SDS011;10677;50.942;4.028;2023-02-02T06:46:24;12.15;;;2.50;;
21036;SDS011;10677;50.942;4.028;2023-02-02T06:48:50;15.52;;;2.47;;
21036;SDS011;10677;50.942;4.028;2023-02-02T06:51:16;14.02;;;2.65;;
21036;SDS011;10677;50.942;4.028;2023-02-02T06:53:42;10.48;;;2.42;;
21036;SDS011;10677;50.942;4.028;2023-02-02T06:56:10;25.10;;;8.55;;
21036;SDS011;10677;50.942;4.028;2023-02-02T06:58:37;14.55;;;3.17;;
21036;SDS011;10677;50.942;4.028;2023-02-02T07:01:03;13.75;;;2.60;;
21036;SDS011;10677;50.942;4.028;2023-02-02T07:03:31;9.85;;;2.30;;
21036;SDS011;10677;50.942;4.028;2023-02-02T07:05:57;16.65;;;3.00;;
21036;SDS011;10677;50.942;4.028;2023-02-02T07:08:34;13.73;;;2.92;;
21036;SDS011;10677;50.942;4.028;2023-02-02T07:11:00;15.48;;;3.47;;
21036;SDS011;10677;50.942;4.028;2023-02-02T07:13:26;14.48;;;2.47;;
21036;SDS011;10677;50.942;4.028;2023-02-02T07:15:54;12.57;;;3.15;;
21036;SDS011;10677;50.942;4.028;2023-02-02T07:18:21;18.55;;;3.17;;
21036;SDS011;10677;50.942;4.028;2023-02-02T07:20:47;10.52;;;2.53;;
21036;SDS011;10677;50.942;4.028;2023-02-02T07:23:12;15.23;;;2.95;;
21036;SDS011;10677;50.942;4.028;2023-02-02T07:25:38;9.98;;;2.92;;
21036;SDS011;10677;50.942;4.028;2023-02-02T07:28:04;18.80;;;3.10;;
21036;SDS011;10677;50.942;4.028;2023-02-02T07:30:29;10.80;;;2.58;;
21036;SDS011;10677;50.942;4.028;2023-02-02T07:32:55;18.42;;;3.42;;
21036;SDS011;10677;50.942;4.028;2023-02-02T07:35:22;15.18;;;2.75;;
21036;SDS011;10677;50.942;4.028;2023-02-02T07:37:54;15.35;;;2.67;;
21036;SDS011;10677;50.942;4.028;2023-02-02T07:40:20;15.25;;;4.13;;
21036;SDS011;10677;50.942;4.028;2023-02-02T07:42:48;10.35;;;2.78;;
21036;SDS011;10677;50.942;4.028;2023-02-02T07:45:14;12.00;;;3.13;;
21036;SDS011;10677;50.942;4.028;2023-02-02T07:47:41;16.88;;;2.90;;
21036;SDS011;10677;50.942;4.028;2023-02-02T07:50:10;12.40;;;2.38;;
21036;SDS011;10677;50.942;4.028;2023-02-02T07:52:36;11.65;;;2.70;;
21036;SDS011;10677;50.942;4.028;2023-02-02T07:55:02;15.27;;;3.05;;
21036;SDS011;10677;50.942;4.028;2023-02-02T07:57:29;12.48;;;2.30;;
21036;SDS011;10677;50.942;4.028;2023-02-02T07:59:55;13.65;;;2.10;;
21036;SDS011;10677;50.942;4.028;2023-02-02T08:02:20;12.45;;;2.42;;
21036;SDS011;10677;50.942;4.028;2023-02-02T08:04:46;15.18;;;3.08;;
21036;SDS011;10677;50.942;4.028;2023-02-02T08:07:12;13.45;;;2.10;;
21036;SDS011;10677;50.942;4.028;2023-02-02T08:09:38;11.35;;;2.63;;
21036;SDS011;10677;50.942;4.028;2023-02-02T08:12:04;11.32;;;2.05;;
21036;SDS011;10677;50.942;4.028;2023-02-02T08:14:29;8.43;;;1.90;;
21036;SDS011;10677;50.942;4.028;2023-02-02T08:16:56;10.30;;;2.80;;
21036;SDS011;10677;50.942;4.028;2023-02-02T08:19:24;15.57;;;2.10;;
21036;SDS011;10677;50.942;4.028;2023-02-02T08:21:51;12.55;;;2.90;;
21036;SDS011;10677;50.942;4.028;2023-02-02T08:24:18;11.50;;;2.63;;
21036;SDS011;10677;50.942;4.028;2023-02-02T08:26:44;12.18;;;2.55;;
21036;SDS011;10677;50.942;4.028;2023-02-02T08:29:10;11.65;;;2.30;;
21036;SDS011;10677;50.942;4.028;2023-02-02T08:31:41;13.45;;;2.33;;
21036;SDS011;10677;50.942;4.028;2023-02-02T08:34:08;14.75;;;2.80;;
21036;SDS011;10677;50.942;4.028;2023-02-02T08:36:36;13.23;;;2.50;;
21036;SDS011;10677;50.942;4.028;2023-02-02T08:39:07;8.73;;;2.13;;
21036;SDS011;10677;50.942;4.028;2023-02-02T08:41:36;13.35;;;2.97;;
21036;SDS011;10677;50.942;4.028;2023-02-02T08:44:06;11.43;;;2.53;;
21036;SDS011;10677;50.942;4.028;2023-02-02T08:46:33;10.88;;;2.50;;
21036;SDS011;10677;50.942;4.028;2023-02-02T08:48:59;10.23;;;2.40;;
21036;SDS011;10677;50.942;4.028;2023-02-02T08:51:25;11.60;;;2.55;;
21036;SDS011;10677;50.942;4.028;2023-02-02T08:53:51;13.98;;;1.83;;
21036;SDS011;10677;50.942;4.028;2023-02-02T08:56:18;11.82;;;2.53;;
21036;SDS011;10677;50.942;4.028;2023-02-02T08:58:45;15.60;;;2.65;;
21036;SDS011;10677;50.942;4.028;2023-02-02T09:01:23;8.43;;;2.00;;
21036;SDS011;10677;50.942;4.028;2023-02-02T09:03:54;11.27;;;1.90;;
21036;SDS011;10677;50.942;4.028;2023-02-02T09:06:29;14.77;;;2.70;;
21036;SDS011;10677;50.942;4.028;2023-02-02T09:08:57;12.73;;;2.50;;
21036;SDS011;10677;50.942;4.028;2023-02-02T09:11:22;10.63;;;2.00;;
21036;SDS011;10677;50.942;4.028;2023-02-02T09:13:51;11.45;;;1.83;;
21036;SDS011;10677;50.942;4.028;2023-02-02T09:16:20;14.23;;;2.58;;
21036;SDS011;10677;50.942;4.028;2023-02-02T09:18:45;9.18;;;3.10;;
21036;SDS011;10677;50.942;4.028;2023-02-02T09:21:12;10.43;;;1.95;;
21036;SDS011;10677;50.942;4.028;2023-02-02T09:23:40;12.52;;;3.00;;
21036;SDS011;10677;50.942;4.028;2023-02-02T09:26:17;9.65;;;2.35;;
21036;SDS011;10677;50.942;4.028;2023-02-02T09:28:46;14.48;;;2.00;;
21036;SDS011;10677;50.942;4.028;2023-02-02T09:31:13;15.38;;;2.72;;
21036;SDS011;10677;50.942;4.028;2023-02-02T09:33:40;8.70;;;1.63;;
21036;SDS011;10677;50.942;4.028;2023-02-02T09:36:08;10.60;;;2.25;;
21036;SDS011;10677;50.942;4.028;2023-02-02T09:38:36;10.32;;;2.17;;
21036;SDS011;10677;50.942;4.028;2023-02-02T09:47:03;14.13;;;2.00;;
21036;SDS011;10677;50.942;4.028;2023-02-02T09:49:55;12.82;;;2.13;;
21036;SDS011;10677;50.942;4.028;2023-02-02T09:57:49;9.77;;;2.22;;
21036;SDS011;10677;50.942;4.028;2023-02-02T10:03:16;11.20;;;1.88;;
21036;SDS011;10677;50.942;4.028;2023-02-02T10:06:00;8.65;;;2.00;;
21036;SDS011;10677;50.942;4.028;2023-02-02T10:09:05;10.75;;;2.17;;
21036;SDS011;10677;50.942;4.028;2023-02-02T10:23:16;7.63;;;1.85;;
21036;SDS011;10677;50.942;4.028;2023-02-02T10:28:34;13.20;;;2.20;;
21036;SDS011;10677;50.942;4.028;2023-02-02T10:34:14;12.75;;;2.53;;
21036;SDS011;10677;50.942;4.028;2023-02-02T10:45:49;12.90;;;2.85;;
21036;SDS011;10677;50.942;4.028;2023-02-02T10:48:19;12.90;;;2.75;;
21036;SDS011;10677;50.942;4.028;2023-02-02T10:50:54;8.98;;;2.20;;
21036;SDS011;10677;50.942;4.028;2023-02-02T10:53:23;7.07;;;2.15;;
21036;SDS011;10677;50.942;4.028;2023-02-02T11:00:56;13.05;;;2.75;;
21036;SDS011;10677;50.942;4.028;2023-02-02T11:03:29;8.52;;;2.03;;
21036;SDS011;10677;50.942;4.028;2023-02-02T11:06:00;12.77;;;2.90;;
21036;SDS011;10677;50.942;4.028;2023-02-02T11:08:50;8.73;;;1.88;;
21036;SDS011;10677;50.942;4.028;2023-02-02T11:16:33;12.25;;;2.15;;
21036;SDS011;10677;50.942;4.028;2023-02-02T11:19:00;11.50;;;2.35;;
21036;SDS011;10677;50.942;4.028;2023-02-02T11:21:31;9.68;;;1.85;;
21036;SDS011;10677;50.942;4.028;2023-02-02T11:23:59;11.77;;;2.47;;
21036;SDS011;10677;50.942;4.028;2023-02-02T11:26:50;10.07;;;2.15;;
21036;SDS011;10677;50.942;4.028;2023-02-02T11:32:24;8.70;;;2.10;;
21036;SDS011;10677;50.942;4.028;2023-02-02T11:37:31;11.23;;;2.60;;
21036;SDS011;10677;50.942;4.028;2023-02-02T11:40:18;11.00;;;2.20;;
21036;SDS011;10677;50.942;4.028;2023-02-02T11:42:56;13.88;;;2.30;;
21036;SDS011;10677;50.942;4.028;2023-02-02T11:45:35;7.35;;;1.70;;
21036;SDS011;10677;50.942;4.028;2023-02-02T11:48:06;10.18;;;2.08;;
21036;SDS011;10677;50.942;4.028;2023-02-02T11:50:43;8.57;;;1.83;;
21036;SDS011;10677;50.942;4.028;2023-02-02T11:56:22;9.77;;;1.90;;
21036;SDS011;10677;50.942;4.028;2023-02-02T11:58:57;10.32;;;2.03;;
21036;SDS011;10677;50.942;4.028;2023-02-02T12:01:28;5.47;;;1.88;;
21036;SDS011;10677;50.942;4.028;2023-02-02T12:06:37;10.30;;;2.42;;
21036;SDS011;10677;50.942;4.028;2023-02-02T12:09:13;8.40;;;1.80;;
21036;SDS011;10677;50.942;4.028;2023-02-02T12:38:50;10.13;;;2.42;;
21036;SDS011;10677;50.942;4.028;2023-02-02T12:44:23;8.05;;;2.35;;
21036;SDS011;10677;50.942;4.028;2023-02-02T12:49:26;8.13;;;2.83;;
21036;SDS011;10677;50.942;4.028;2023-02-02T12:55:09;7.10;;;2.05;;
21036;SDS011;10677;50.942;4.028;2023-02-02T13:03:35;6.38;;;1.90;;
21036;SDS011;10677;50.942;4.028;2023-02-02T13:06:16;14.63;;;2.42;;
21036;SDS011;10677;50.942;4.028;2023-02-02T13:09:12;7.18;;;2.78;;
21036;SDS011;10677;50.942;4.028;2023-02-02T13:11:47;6.90;;;2.20;;
21036;SDS011;10677;50.942;4.028;2023-02-02T13:14:20;7.35;;;1.77;;
21036;SDS011;10677;50.942;4.028;2023-02-02T13:17:11;8.80;;;2.40;;
21036;SDS011;10677;50.942;4.028;2023-02-02T13:19:44;9.18;;;2.95;;
21036;SDS011;10677;50.942;4.028;2023-02-02T13:22:14;9.27;;;2.22;;
21036;SDS011;10677;50.942;4.028;2023-02-02T13:24:45;7.70;;;2.28;;
21036;SDS011;10677;50.942;4.028;2023-02-02T13:27:16;10.60;;;2.22;;
21036;SDS011;10677;50.942;4.028;2023-02-02T13:32:38;8.88;;;2.10;;
21036;SDS011;10677;50.942;4.028;2023-02-02T13:38:44;6.07;;;1.75;;
21036;SDS011;10677;50.942;4.028;2023-02-02T13:40:55;5.18;;;1.70;;
21036;SDS011;10677;50.942;4.028;2023-02-02T13:43:26;11.07;;;2.35;;
21036;SDS011;10677;50.942;4.028;2023-02-02T13:46:40;11.73;;;2.10;;
21036;SDS011;10677;50.942;4.028;2023-02-02T13:51:43;6.30;;;1.60;;
21036;SDS011;10677;50.942;4.028;2023-02-02T13:57:25;9.38;;;2.42;;
21036;SDS011;10677;50.942;4.028;2023-02-02T14:00:25;7.68;;;2.40;;
21036;SDS011;10677;50.942;4.028;2023-02-02T14:02:59;7.10;;;2.20;;
21036;SDS011;10677;50.942;4.028;2023-02-02T14:05:39;8.77;;;2.83;;
21036;SDS011;10677;50.942;4.028;2023-02-02T14:08:19;7.85;;;2.78;;
21036;SDS011;10677;50.942;4.028;2023-02-02T14:13:19;9.43;;;2.65;;
21036;SDS011;10677;50.942;4.028;2023-02-02T14:16:05;8.48;;;2.33;;
21036;SDS011;10677;50.942;4.028;2023-02-02T14:18:52;8.93;;;2.63;;
21036;SDS011;10677;50.942;4.028;2023-02-02T14:45:29;10.38;;;3.03;;
21036;SDS011;10677;50.942;4.028;2023-02-02T14:55:57;9.02;;;2.40;;
21036;SDS011;10677;50.942;4.028;2023-02-02T15:06:45;9.30;;;2.03;;
21036;SDS011;10677;50.942;4.028;2023-02-02T15:22:42;6.65;;;1.77;;
21036;SDS011;10677;50.942;4.028;2023-02-02T15:25:35;11.40;;;2.20;;
21036;SDS011;10677;50.942;4.028;2023-02-02T15:28:17;7.53;;;2.10;;
21036;SDS011;10677;50.942;4.028;2023-02-02T15:30:47;7.72;;;2.75;;
21036;SDS011;10677;50.942;4.028;2023-02-02T15:35:53;11.55;;;2.85;;
21036;SDS011;10677;50.942;4.028;2023-02-02T15:38:23;9.32;;;2.45;;
21036;SDS011;10677;50.942;4.028;2023-02-02T15:40:57;10.30;;;2.85;;
21036;SDS011;10677;50.942;4.028;2023-02-02T15:43:27;9.30;;;2.35;;
21036;SDS011;10677;50.942;4.028;2023-02-02T15:45:54;9.02;;;3.22;;
21036;SDS011;10677;50.942;4.028;2023-02-02T15:48:28;13.85;;;3.80;;
21036;SDS011;10677;50.942;4.028;2023-02-02T15:50:59;10.70;;;3.15;;
21036;SDS011;10677;50.942;4.028;2023-02-02T15:53:32;13.95;;;5.55;;
21036;SDS011;10677;50.942;4.028;2023-02-02T15:56:17;12.00;;;3.08;;
21036;SDS011;10677;50.942;4.028;2023-02-02T15:58:50;9.32;;;3.15;;
21036;SDS011;10677;50.942;4.028;2023-02-02T16:01:18;11.98;;;3.53;;
21036;SDS011;10677;50.942;4.028;2023-02-02T16:06:29;12.65;;;3.17;;
21036;SDS011;10677;50.942;4.028;2023-02-02T16:08:55;14.10;;;4.38;;
21036;SDS011;10677;50.942;4.028;2023-02-02T16:11:22;15.90;;;4.90;;
21036;SDS011;10677;50.942;4.028;2023-02-02T16:16:24;14.00;;;4.55;;
21036;SDS011;10677;50.942;4.028;2023-02-02T16:19:01;10.23;;;3.33;;
21036;SDS011;10677;50.942;4.028;2023-02-02T16:21:28;13.88;;;3.60;;
21036;SDS011;10677;50.942;4.028;2023-02-02T16:23:55;9.85;;;3.92;;
21036;SDS011;10677;50.942;4.028;2023-02-02T16:26:23;8.45;;;3.35;;
21036;SDS011;10677;50.942;4.028;2023-02-02T16:28:53;11.45;;;3.42;;
21036;SDS011;10677;50.942;4.028;2023-02-02T16:31:19;13.57;;;3.92;;
21036;SDS011;10677;50.942;4.028;2023-02-02T16:33:44;8.73;;;3.33;;
21036;SDS011;10677;50.942;4.028;2023-02-02T16:36:17;8.90;;;3.67;;
21036;SDS011;10677;50.942;4.028;2023-02-02T16:38:52;11.75;;;3.67;;
21036;SDS011;10677;50.942;4.028;2023-02-02T16:41:29;11.27;;;3.83;;
21036;SDS011;10677;50.942;4.028;2023-02-02T16:44:26;11.20;;;3.28;;
21036;SDS011;10677;50.942;4.028;2023-02-02T16:47:00;17.30;;;3.78;;
21036;SDS011;10677;50.942;4.028;2023-02-02T16:49:27;11.13;;;3.47;;
21036;SDS011;10677;50.942;4.028;2023-02-02T16:52:13;13.05;;;3.78;;
21036;SDS011;10677;50.942;4.028;2023-02-02T16:54:48;13.65;;;4.60;;
21036;SDS011;10677;50.942;4.028;2023-02-02T16:57:26;9.25;;;4.22;;
21036;SDS011;10677;50.942;4.028;2023-02-02T16:59:55;19.27;;;4.60;;
21036;SDS011;10677;50.942;4.028;2023-02-02T17:02:28;9.35;;;4.07;;
21036;SDS011;10677;50.942;4.028;2023-02-02T17:05:16;16.15;;;3.90;;
21036;SDS011;10677;50.942;4.028;2023-02-02T17:07:55;13.13;;;4.43;;
21036;SDS011;10677;50.942;4.028;2023-02-02T17:10:32;12.38;;;4.32;;
21036;SDS011;10677;50.942;4.028;2023-02-02T17:12:59;11.82;;;4.45;;
21036;SDS011;10677;50.942;4.028;2023-02-02T17:17:55;12.63;;;4.28;;
21036;SDS011;10677;50.942;4.028;2023-02-02T17:20:22;13.98;;;4.80;;
21036;SDS011;10677;50.942;4.028;2023-02-02T17:22:49;12.98;;;4.57;;
21036;SDS011;10677;50.942;4.028;2023-02-02T17:25:20;7.45;;;4.00;;
21036;SDS011;10677;50.942;4.028;2023-02-02T17:27:52;11.35;;;4.50;;
21036;SDS011;10677;50.942;4.028;2023-02-02T17:30:19;10.55;;;4.07;;
21036;SDS011;10677;50.942;4.028;2023-02-02T17:32:45;13.23;;;4.20;;
21036;SDS011;10677;50.942;4.028;2023-02-02T17:35:21;10.10;;;4.00;;
21036;SDS011;10677;50.942;4.028;2023-02-02T17:37:49;15.80;;;4.40;;
21036;SDS011;10677;50.942;4.028;2023-02-02T17:40:19;10.35;;;4.03;;
21036;SDS011;10677;50.942;4.028;2023-02-02T17:42:49;7.60;;;4.22;;
21036;SDS011;10677;50.942;4.028;2023-02-02T17:45:20;12.55;;;3.72;;
21036;SDS011;10677;50.942;4.028;2023-02-02T17:47:48;9.35;;;3.65;;
21036;SDS011;10677;50.942;4.028;2023-02-02T17:50:15;10.20;;;3.50;;
21036;SDS011;10677;50.942;4.028;2023-02-02T17:52:41;7.80;;;3.95;;
21036;SDS011;10677;50.942;4.028;2023-02-02T17:55:40;13.70;;;3.95;;
21036;SDS011;10677;50.942;4.028;2023-02-02T17:58:02;14.20;;;3.67;;
21036;SDS011;10677;50.942;4.028;2023-02-02T18:00:28;8.05;;;3.92;;
21036;SDS011;10677;50.942;4.028;2023-02-02T18:02:56;8.93;;;3.72;;
21036;SDS011;10677;50.942;4.028;2023-02-02T18:05:33;12.05;;;3.58;;
21036;SDS011;10677;50.942;4.028;2023-02-02T18:08:01;9.70;;;3.78;;
21036;SDS011;10677;50.942;4.028;2023-02-02T18:10:26;11.23;;;3.55;;
21036;SDS011;10677;50.942;4.028;2023-02-02T18:12:54;11.68;;;3.30;;
21036;SDS011;10677;50.942;4.028;2023-02-02T18:15:20;12.70;;;3.53;;
21036;SDS011;10677;50.942;4.028;2023-02-02T18:17:46;9.38;;;3.50;;
21036;SDS011;10677;50.942;4.028;2023-02-02T18:20:12;9.52;;;3.60;;
21036;SDS011;10677;50.942;4.028;2023-02-02T18:22:39;10.07;;;3.72;;
21036;SDS011;10677;50.942;4.028;2023-02-02T18:25:08;9.80;;;3.38;;